Time,TemperatureF,DewpointF,PressureIn,WindDirection,WindDirectionDegrees,WindSpeedMPH,WindSpeedGustMPH,Humidity,HourlyPrecipIn,Conditions,Clouds,dailyrainin,SoftwareType,DateUTC
2013-12-06 00:12:00,40.0,38.0,30.03,North,355,12.0,16.0,94,0.00,,,0.07,,2013-12-06 06:12:00,
2013-12-06 00:22:00,40.0,38.0,30.04,North,9,14.0,17.0,94,0.01,,,0.08,,2013-12-06 06:22:00,
2013-12-06 00:42:00,40.0,38.0,30.05,NNE,32,10.0,17.0,94,0.01,,,0.08,,2013-12-06 06:42:00,
2013-12-06 00:52:00,40.0,38.0,30.04,North,355,11.0,17.0,94,0.02,,,0.09,,2013-12-06 06:52:00,
2013-12-06 01:11:00,39.0,37.0,30.04,NNE,18,8.0,14.0,94,0.02,,,0.09,,2013-12-06 07:11:00,
2013-12-06 01:22:00,39.0,37.0,30.03,North,360,9.0,16.0,94,0.01,,,0.09,,2013-12-06 07:22:00,
2013-12-06 01:42:00,39.0,37.0,30.03,North,10,9.0,13.0,94,0.02,,,0.10,,2013-12-06 07:42:00,
2013-12-06 01:52:00,39.0,37.0,30.03,NNW,346,9.0,14.0,94,0.01,,,0.10,,2013-12-06 07:52:00,
2013-12-06 02:12:00,39.0,37.0,30.03,North,5,13.0,16.0,94,0.01,,,0.10,,2013-12-06 08:12:00,
2013-12-06 02:22:00,39.0,37.0,30.03,North,5,11.0,16.0,94,0.01,,,0.10,,2013-12-06 08:22:00,
2013-12-06 02:42:00,39.0,37.0,30.02,NE,36,9.0,15.0,93,0.00,,,0.10,,2013-12-06 08:42:00,
2013-12-06 02:52:00,39.0,37.0,30.02,North,9,11.0,18.0,93,0.00,,,0.10,,2013-12-06 08:52:00,
2013-12-06 03:12:00,39.0,37.0,30.01,NE,38,13.0,17.0,93,0.00,,,0.10,,2013-12-06 09:12:00,
2013-12-06 03:22:00,39.0,37.0,30.01,NNE,27,8.0,14.0,93,0.00,,,0.10,,2013-12-06 09:22:00,
2013-12-06 03:43:00,39.0,37.0,30.01,NNE,13,12.0,15.0,94,0.00,,,0.10,,2013-12-06 09:43:00,
2013-12-06 03:53:00,39.0,37.0,30.01,NNE,19,10.0,17.0,94,0.00,,,0.10,,2013-12-06 09:53:00,
2013-12-06 04:23:00,39.0,37.0,30.02,ENE,58,10.0,13.0,94,0.00,,,0.10,,2013-12-06 10:23:00,
2013-12-06 04:43:00,39.0,37.0,30.01,NE,34,9.0,13.0,94,0.00,,,0.10,,2013-12-06 10:43:00,
2013-12-06 04:52:00,39.0,38.0,30.01,North,351,8.0,13.0,95,0.00,,,0.10,,2013-12-06 10:52:00,
2013-12-06 05:12:00,39.0,38.0,30.02,North,355,7.0,13.0,95,0.00,,,0.10,,2013-12-06 11:12:00,
2013-12-06 05:22:00,38.0,37.0,30.03,NNE,15,6.0,12.0,95,0.00,,,0.10,,2013-12-06 11:22:00,
2013-12-06 05:42:00,38.0,37.0,30.03,North,11,10.0,13.0,95,0.00,,,0.10,,2013-12-06 11:42:00,
2013-12-06 05:53:00,38.0,37.0,30.03,North,9,6.0,12.0,95,0.00,,,0.10,,2013-12-06 11:53:00,
2013-12-06 06:21:00,38.0,37.0,30.03,North,355,10.0,14.0,95,0.01,,,0.11,,2013-12-06 12:21:00,
2013-12-06 06:42:00,38.0,37.0,30.03,NNE,17,9.0,14.0,95,0.01,,,0.11,,2013-12-06 12:42:00,
2013-12-06 06:52:00,38.0,37.0,30.04,North,355,8.0,12.0,95,0.01,,,0.11,,2013-12-06 12:52:00,
2013-12-06 07:11:00,38.0,37.0,30.05,NNW,346,10.0,14.0,95,0.00,,,0.11,,2013-12-06 13:11:00,
2013-12-06 07:22:00,38.0,37.0,30.04,North,360,8.0,17.0,95,0.00,,,0.11,,2013-12-06 13:22:00,
2013-12-06 07:42:00,38.0,37.0,30.04,NNE,13,11.0,16.0,95,0.00,,,0.11,,2013-12-06 13:42:00,
2013-12-06 07:52:00,38.0,37.0,30.04,NNE,17,11.0,17.0,95,0.00,,,0.11,,2013-12-06 13:52:00,
2013-12-06 08:11:00,38.0,37.0,30.03,NNE,19,10.0,17.0,95,0.00,,,0.11,,2013-12-06 14:11:00,
2013-12-06 08:22:00,38.0,37.0,30.07,North,355,8.0,12.0,95,0.00,,,0.11,,2013-12-06 14:22:00,
2013-12-06 08:42:00,38.0,37.0,30.09,North,355,9.0,14.0,95,0.01,,,0.12,,2013-12-06 14:42:00,
2013-12-06 08:52:00,38.0,37.0,30.07,North,5,11.0,18.0,95,0.01,,,0.12,,2013-12-06 14:52:00,
2013-12-06 09:12:00,38.0,37.0,30.08,North,10,11.0,15.0,95,0.01,,,0.12,,2013-12-06 15:12:00,
2013-12-06 09:22:00,38.0,37.0,30.08,NNE,16,13.0,19.0,95,0.01,,,0.12,,2013-12-06 15:22:00,
2013-12-06 09:44:00,37.0,36.0,30.08,NE,34,11.0,19.0,95,0.00,,,0.12,,2013-12-06 15:44:00,
2013-12-06 09:54:00,37.0,36.0,30.09,NNE,20,10.0,17.0,95,0.00,,,0.12,,2013-12-06 15:54:00,
2013-12-06 10:13:00,37.0,36.0,30.09,North,5,11.0,17.0,95,0.00,,,0.12,,2013-12-06 16:13:00,
2013-12-06 10:24:00,37.0,36.0,30.09,North,5,11.0,17.0,95,0.00,,,0.12,,2013-12-06 16:24:00,
2013-12-06 10:43:00,37.0,35.0,30.08,NNE,21,11.0,17.0,94,0.00,,,0.12,,2013-12-06 16:43:00,
2013-12-06 10:53:00,37.0,35.0,30.11,North,9,7.0,14.0,94,0.00,,,0.12,,2013-12-06 16:53:00,
2013-12-06 11:12:00,37.0,35.0,30.12,North,5,10.0,15.0,94,0.00,,,0.12,,2013-12-06 17:12:00,
2013-12-06 11:22:00,37.0,35.0,30.11,North,5,11.0,15.0,94,0.01,,,0.13,,2013-12-06 17:22:00,
2013-12-06 11:43:00,38.0,37.0,30.12,NNW,344,14.0,19.0,95,0.02,,,0.14,,2013-12-06 17:43:00,
2013-12-06 11:52:00,37.0,35.0,30.13,NNW,346,14.0,20.0,94,0.02,,,0.14,,2013-12-06 17:52:00,
2013-12-06 12:12:00,36.0,34.0,30.11,North,360,12.0,16.0,94,0.02,,,0.14,,2013-12-06 18:12:00,
2013-12-06 12:22:00,36.0,34.0,30.11,North,360,12.0,16.0,94,0.02,,,0.14,,2013-12-06 18:22:00,
2013-12-06 12:42:00,37.0,35.0,30.14,NNW,338,10.0,15.0,94,0.00,,,0.14,,2013-12-06 18:42:00,
2013-12-06 12:52:00,37.0,35.0,30.13,NNW,331,13.0,19.0,94,0.00,,,0.14,,2013-12-06 18:52:00,
2013-12-06 13:22:00,36.0,34.0,30.14,NNW,327,13.0,18.0,94,0.00,,,0.14,,2013-12-06 19:22:00,
2013-12-06 13:42:00,36.0,34.0,30.13,NNW,341,15.0,20.0,93,0.01,,,0.15,,2013-12-06 19:42:00,
2013-12-06 13:52:00,36.0,34.0,30.15,North,355,16.0,20.0,93,0.03,,,0.17,,2013-12-06 19:52:00,
2013-12-06 14:11:00,36.0,34.0,30.16,NNW,342,15.0,18.0,93,0.03,,,0.17,,2013-12-06 20:11:00,
2013-12-06 14:22:00,36.0,34.0,30.15,NNW,331,13.0,21.0,93,0.04,,,0.18,,2013-12-06 20:22:00,
2013-12-06 14:42:00,36.0,34.0,30.16,North,350,12.0,16.0,94,0.03,,,0.18,,2013-12-06 20:42:00,
2013-12-06 14:52:00,35.0,33.0,30.15,North,360,13.0,18.0,93,0.01,,,0.18,,2013-12-06 20:52:00,
2013-12-06 15:11:00,35.0,33.0,30.15,North,5,14.0,20.0,92,0.01,,,0.18,,2013-12-06 21:11:00,
2013-12-06 15:22:00,36.0,34.0,30.17,NNW,347,11.0,16.0,93,0.00,,,0.18,,2013-12-06 21:22:00,
2013-12-06 15:43:00,36.0,34.0,30.17,North,360,12.0,16.0,93,0.00,,,0.17,,2013-12-06 21:43:00,
2013-12-06 15:53:00,36.0,34.0,30.17,North,5,13.0,18.0,92,0.00,,,0.17,,2013-12-06 21:53:00,
2013-12-06 16:13:00,36.0,34.0,30.17,North,11,12.0,15.0,92,0.00,,,0.17,,2013-12-06 22:13:00,
2013-12-06 16:23:00,36.0,34.0,30.19,North,351,11.0,21.0,91,0.00,,,0.17,,2013-12-06 22:23:00,
2013-12-06 16:42:00,36.0,34.0,30.21,North,5,13.0,18.0,91,0.00,,,0.17,,2013-12-06 22:42:00,
2013-12-06 16:53:00,36.0,34.0,30.20,North,355,11.0,16.0,91,0.00,,,0.17,,2013-12-06 22:53:00,
2013-12-06 17:12:00,36.0,34.0,30.21,NNW,344,13.0,17.0,91,0.00,,,0.17,,2013-12-06 23:12:00,
2013-12-06 17:22:00,36.0,34.0,30.21,NNW,347,12.0,17.0,92,0.00,,,0.17,,2013-12-06 23:22:00,
2013-12-06 17:42:00,36.0,34.0,30.22,North,355,11.0,16.0,92,0.00,,,0.17,,2013-12-06 23:42:00,
2013-12-06 17:52:00,36.0,33.0,30.23,North,360,14.0,18.0,90,0.00,,,0.17,,2013-12-06 23:52:00,
2013-12-06 18:11:00,36.0,33.0,30.23,North,360,11.0,16.0,90,0.00,,,0.17,,2013-12-07 00:11:00,
2013-12-06 18:22:00,36.0,33.0,30.24,NNE,12,12.0,16.0,90,0.00,,,0.17,,2013-12-07 00:22:00,
2013-12-06 18:42:00,36.0,34.0,30.25,North,355,13.0,17.0,91,0.00,,,0.17,,2013-12-07 00:42:00,
2013-12-06 18:52:00,36.0,34.0,30.26,North,5,12.0,16.0,92,0.00,,,0.17,,2013-12-07 00:52:00,
2013-12-06 19:11:00,36.0,34.0,30.26,NNW,342,14.0,20.0,92,0.00,,,0.17,,2013-12-07 01:11:00,
2013-12-06 19:22:00,35.0,33.0,30.27,NNW,346,13.0,22.0,91,0.00,,,0.17,,2013-12-07 01:22:00,
2013-12-06 19:42:00,35.0,33.0,30.28,NW,314,14.0,20.0,91,0.00,,,0.17,,2013-12-07 01:42:00,
2013-12-06 19:52:00,35.0,33.0,30.28,North,5,16.0,22.0,91,0.00,,,0.17,,2013-12-07 01:52:00,
2013-12-06 20:11:00,35.0,33.0,30.29,North,350,15.0,21.0,92,0.00,,,0.17,,2013-12-07 02:11:00,
2013-12-06 20:21:00,34.0,32.0,30.30,NNW,344,14.0,21.0,92,0.00,,,0.17,,2013-12-07 02:21:00,
2013-12-06 20:42:00,34.0,32.0,30.31,North,350,18.0,24.0,92,0.00,,,0.17,,2013-12-07 02:42:00,
2013-12-06 20:52:00,33.0,31.0,30.32,NNW,340,16.0,21.0,91,0.00,,,0.17,,2013-12-07 02:52:00,
2013-12-06 21:11:00,33.0,31.0,30.32,NNW,346,15.0,22.0,92,0.00,,,0.17,,2013-12-07 03:11:00,
2013-12-06 21:22:00,32.0,30.0,30.33,NNW,335,16.0,22.0,92,0.00,,,0.17,,2013-12-07 03:22:00,
2013-12-06 21:43:00,32.0,30.0,30.34,NNW,341,16.0,22.0,92,0.00,,,0.16,,2013-12-07 03:43:00,
2013-12-06 21:53:00,32.0,30.0,30.35,North,349,15.0,22.0,92,0.00,,,0.16,,2013-12-07 03:53:00,
2013-12-06 22:12:00,32.0,30.0,30.35,North,5,15.0,19.0,92,0.00,,,0.16,,2013-12-07 04:12:00,
2013-12-06 22:23:00,32.0,30.0,30.35,North,355,13.0,23.0,92,0.00,,,0.16,,2013-12-07 04:23:00,
2013-12-06 22:43:00,31.0,29.0,30.35,North,5,15.0,20.0,92,0.00,,,0.14,,2013-12-07 04:43:00,
2013-12-06 22:53:00,31.0,29.0,30.36,NNE,15,13.0,22.0,93,0.00,,,0.14,,2013-12-07 04:53:00,
2013-12-06 23:12:00,31.0,29.0,30.37,NNW,341,15.0,19.0,93,0.00,,,0.14,,2013-12-07 05:12:00,
2013-12-06 23:22:00,31.0,29.0,30.37,NNW,336,13.0,20.0,93,0.00,,,0.14,,2013-12-07 05:22:00,
2013-12-06 23:43:00,30.0,28.0,30.37,North,360,16.0,21.0,94,0.00,,,0.11,,2013-12-07 05:43:00,
2013-12-06 23:53:00,30.0,28.0,30.37,North,355,17.0,21.0,93,0.00,,,0.11,,2013-12-07 05:53:00,